Time;durP1;ratioP1;P1;durP2;ratioP2;P2;SDS_P1;SDS_P2;PMS_P1;PMS_P2;Temp;Humidity;BMP_temperature;BMP_pressure;BME280_temperature;BME280_humidity;BME280_pressure;Samples;Min_cycle;Max_cycle;Signal;HPM_P1;HPM_P2
2022/01/26 00:00:55;;;;;;;63.70;25.42;;;3.60;99.90;;;;;;4994456;28;20038;-84
2022/01/26 00:06:21;;;;;;;72.15;25.88;;;4.00;99.90;;;;;;5002154;28;20135;-85
2022/01/26 00:08:48;;;;;;;69.82;26.13;;;4.00;99.90;;;;;;5019526;28;20042;-85
2022/01/26 00:11:14;;;;;;;73.15;27.88;;;5.40;99.90;;;;;;5000194;28;20065;-85
2022/01/26 00:13:40;;;;;;;71.95;25.48;;;3.50;99.90;;;;;;5013631;28;20502;-85
2022/01/26 00:16:11;;;;;;;61.85;26.30;;;3.50;99.90;;;;;;4985400;28;20034;-85
2022/01/26 00:18:38;;;;;;;68.28;27.58;;;3.80;99.90;;;;;;5002974;28;20537;-85
2022/01/26 00:21:09;;;;;;;63.17;25.50;;;3.50;99.90;;;;;;5003652;28;20069;-84
2022/01/26 00:29:08;;;;;;;69.75;26.15;;;4.00;99.90;;;;;;5011208;28;20053;-84
2022/01/26 00:40:00;;;;;;;66.75;26.00;;;4.60;99.90;;;;;;5037901;28;20143;-84
2022/01/26 00:42:31;;;;;;;66.20;25.55;;;4.90;99.90;;;;;;5011368;28;20037;-85
2022/01/26 00:44:57;;;;;;;66.82;27.63;;;4.50;99.90;;;;;;5007783;28;20071;-84
2022/01/26 00:47:22;;;;;;;69.78;26.80;;;5.00;99.90;;;;;;5019776;28;20527;-84
2022/01/26 00:49:50;;;;;;;66.55;26.70;;;4.60;99.90;;;;;;5010763;28;20040;-85
2022/01/26 00:52:25;;;;;;;68.38;27.55;;;3.40;99.90;;;;;;5013845;28;20102;-85
2022/01/26 00:54:51;;;;;;;64.07;24.38;;;4.30;99.90;;;;;;5023200;28;20037;-84
2022/01/26 00:57:17;;;;;;;71.03;27.40;;;4.80;99.90;;;;;;4997744;28;20529;-84
2022/01/26 00:59:42;;;;;;;68.80;27.10;;;4.40;99.90;;;;;;5016145;28;20044;-84
2022/01/26 01:02:08;;;;;;;70.97;26.85;;;3.50;99.90;;;;;;5000305;28;20052;-84
2022/01/26 01:04:34;;;;;;;66.68;25.00;;;4.80;99.90;;;;;;5026458;28;20041;-85
2022/01/26 01:07:02;;;;;;;69.38;26.27;;;3.40;99.90;;;;;;4998933;28;20465;-84
2022/01/26 01:09:32;;;;;;;75.32;27.13;;;4.00;99.90;;;;;;5036229;28;20116;-84
2022/01/26 01:12:01;;;;;;;67.85;26.90;;;3.50;99.90;;;;;;5011401;28;20034;-84
2022/01/26 01:14:27;;;;;;;70.70;26.73;;;3.40;99.90;;;;;;5022170;28;20059;-85
2022/01/26 01:16:55;;;;;;;65.43;26.02;;;3.40;99.90;;;;;;5008909;28;20054;-85
2022/01/26 01:19:38;;;;;;;67.75;26.52;;;4.50;99.90;;;;;;5014042;28;20478;-85
2022/01/26 01:30:27;;;;;;;78.80;26.90;;;3.40;99.90;;;;;;5026543;28;20502;-84
2022/01/26 01:33:04;;;;;;;71.57;27.17;;;3.40;99.90;;;;;;5028851;28;20037;-85
2022/01/26 01:35:32;;;;;;;75.90;26.95;;;4.30;99.90;;;;;;5031678;28;20041;-86
2022/01/26 01:38:07;;;;;;;73.82;27.23;;;3.40;99.90;;;;;;5041820;28;20045;-85
2022/01/26 01:40:33;;;;;;;65.57;26.92;;;4.60;99.90;;;;;;5029176;28;20088;-85
2022/01/26 01:42:59;;;;;;;72.10;26.88;;;3.40;99.90;;;;;;5051612;28;20112;-85
2022/01/26 01:45:45;;;;;;;70.75;26.00;;;3.40;99.90;;;;;;4992336;28;20477;-85
2022/01/26 01:48:15;;;;;;;66.15;27.27;;;3.40;99.90;;;;;;5040194;28;21600;-85
2022/01/26 01:50:42;;;;;;;69.75;26.48;;;3.40;99.90;;;;;;5045575;28;20046;-85
2022/01/26 01:53:13;;;;;;;75.75;27.20;;;3.70;99.90;;;;;;5016671;28;20112;-85
2022/01/26 01:55:41;;;;;;;69.78;27.70;;;5.30;99.90;;;;;;5031372;28;20128;-86
2022/01/26 01:58:09;;;;;;;75.55;28.15;;;3.40;99.90;;;;;;5042107;28;20065;-85
2022/01/26 02:00:36;;;;;;;73.72;27.17;;;4.40;99.90;;;;;;5041099;28;20202;-85
2022/01/26 02:03:03;;;;;;;70.97;26.23;;;3.40;99.90;;;;;;5025068;28;20041;-85
2022/01/26 02:05:29;;;;;;;71.47;27.05;;;5.60;99.90;;;;;;5005834;28;20064;-85
2022/01/26 02:07:54;;;;;;;69.65;26.80;;;3.40;99.90;;;;;;5023161;28;20490;-85
2022/01/26 02:10:23;;;;;;;75.10;27.55;;;4.50;99.90;;;;;;5006558;28;20041;-85
2022/01/26 02:12:52;;;;;;;69.10;26.05;;;3.40;99.90;;;;;;5024056;28;20060;-85
2022/01/26 02:15:24;;;;;;;73.72;26.63;;;5.20;99.90;;;;;;5037729;28;20455;-86
2022/01/26 02:18:22;;;;;;;68.85;26.10;;;5.00;99.90;;;;;;5004643;28;20033;-85
2022/01/26 02:53:39;;;;;;;64.95;24.85;;;4.80;99.90;;;;;;5023234;28;20055;-85
2022/01/26 02:56:08;;;;;;;68.18;25.58;;;3.90;99.90;;;;;;5026194;28;20077;-85
2022/01/26 03:04:12;;;;;;;69.68;26.42;;;3.30;99.90;;;;;;5024487;28;20117;-84
2022/01/26 03:09:33;;;;;;;73.15;27.23;;;3.30;99.90;;;;;;5015276;28;20037;-85
2022/01/26 03:12:00;;;;;;;70.57;26.27;;;3.30;99.90;;;;;;5010406;28;20056;-85
2022/01/26 03:17:04;;;;;;;77.00;27.45;;;3.30;99.90;;;;;;5039341;28;20068;-85
2022/01/26 03:19:46;;;;;;;75.63;28.20;;;4.60;99.90;;;;;;5009254;28;20460;-85
2022/01/26 03:33:10;;;;;;;67.25;26.80;;;3.30;99.90;;;;;;5024037;28;20506;-85
2022/01/26 03:38:25;;;;;;;70.28;26.35;;;4.50;99.90;;;;;;5040543;28;20499;-85
2022/01/26 03:41:09;;;;;;;70.90;27.73;;;3.30;99.90;;;;;;5014696;28;20037;-85
2022/01/26 03:43:35;;;;;;;67.35;26.70;;;3.30;99.90;;;;;;5012708;28;20033;-85
2022/01/26 03:46:00;;;;;;;71.90;26.77;;;4.10;99.90;;;;;;5024482;28;20064;-85
2022/01/26 03:48:26;;;;;;;70.95;26.02;;;;;;;;;;5018803;28;20125;-85
2022/01/26 03:50:52;;;;;;;71.95;27.48;;;3.30;99.90;;;;;;5020535;28;20028;-85
2022/01/26 03:53:18;;;;;;;70.90;26.05;;;3.30;99.90;;;;;;5020270;28;20445;-85
2022/01/26 03:55:44;;;;;;;69.55;26.73;;;3.90;99.90;;;;;;4993571;28;20044;-85
2022/01/26 03:58:10;;;;;;;69.80;26.20;;;4.10;99.90;;;;;;5009927;28;20044;-85
2022/01/26 04:00:36;;;;;;;64.68;26.42;;;3.30;99.90;;;;;;5018940;28;20045;-85
2022/01/26 04:03:02;;;;;;;71.22;27.88;;;3.30;99.90;;;;;;5021752;28;20040;-85
2022/01/26 04:05:28;;;;;;;69.50;26.60;;;3.30;99.90;;;;;;5023689;28;20513;-85
2022/01/26 04:08:00;;;;;;;64.55;24.52;;;3.30;99.90;;;;;;5015915;28;20052;-84
2022/01/26 04:13:00;;;;;;;64.18;25.58;;;3.20;99.90;;;;;;5019763;28;20041;-85
2022/01/26 04:15:30;;;;;;;64.28;26.77;;;3.20;99.90;;;;;;5006738;28;20041;-85
2022/01/26 04:17:56;;;;;;;67.75;26.38;;;3.20;99.90;;;;;;5036274;28;20037;-85
2022/01/26 04:20:26;;;;;;;65.07;25.58;;;3.20;99.90;;;;;;5036624;28;20029;-85
2022/01/26 04:23:06;;;;;;;64.93;25.35;;;3.20;99.90;;;;;;5024312;28;20379;-85
2022/01/26 04:25:31;;;;;;;58.42;23.35;;;4.10;99.90;;;;;;5017338;28;20045;-85
2022/01/26 04:28:02;;;;;;;61.67;24.33;;;4.60;99.90;;;;;;5018578;28;20055;-85
2022/01/26 04:30:28;;;;;;;63.92;24.75;;;4.70;99.90;;;;;;5005687;28;20433;-84
2022/01/26 04:32:59;;;;;;;61.75;25.05;;;5.00;99.90;;;;;;5002035;28;20033;-85
2022/01/26 04:35:25;;;;;;;66.43;24.42;;;4.40;99.90;;;;;;5042072;28;20041;-85
2022/01/26 04:40:17;;;;;;;61.78;24.55;;;3.60;99.90;;;;;;5019000;28;20061;-86
2022/01/26 04:42:53;;;;;;;61.08;24.40;;;4.10;99.90;;;;;;5018046;28;20040;-85
2022/01/26 04:45:19;;;;;;;66.22;23.77;;;4.70;99.90;;;;;;5018085;28;20037;-85
2022/01/26 04:47:45;;;;;;;60.95;23.88;;;3.10;99.90;;;;;;5003581;28;20036;-85
2022/01/26 04:50:11;;;;;;;56.42;23.85;;;4.50;99.90;;;;;;5004522;28;20120;-86
2022/01/26 04:52:38;;;;;;;59.75;23.75;;;4.30;99.90;;;;;;5020763;28;20045;-86
2022/01/26 04:55:04;;;;;;;57.60;23.75;;;3.10;99.90;;;;;;5011637;28;20426;-85
2022/01/26 04:57:30;;;;;;;61.20;24.55;;;3.10;99.90;;;;;;5007920;28;20424;-85
2022/01/26 04:59:55;;;;;;;56.30;23.35;;;4.00;99.90;;;;;;5018343;28;20037;-86
2022/01/26 05:02:21;;;;;;;61.60;24.05;;;3.10;99.90;;;;;;5039469;28;20072;-85
2022/01/26 05:04:47;;;;;;;61.28;23.85;;;3.80;99.90;;;;;;5018003;28;20491;-85
2022/01/26 05:07:13;;;;;;;56.25;23.58;;;;;;;;;;4995316;28;20037;-85
2022/01/26 05:09:40;;;;;;;60.55;24.38;;;3.10;99.90;;;;;;5036371;28;20468;-86
2022/01/26 05:12:06;;;;;;;55.90;23.17;;;3.10;99.90;;;;;;5009963;28;20422;-85
2022/01/26 05:14:32;;;;;;;63.85;24.75;;;3.10;99.90;;;;;;5017807;28;20053;-85
2022/01/26 05:16:57;;;;;;;62.05;24.15;;;4.30;99.90;;;;;;5022607;28;20041;-86
2022/01/26 05:19:23;;;;;;;56.85;24.02;;;3.10;99.90;;;;;;5010639;28;20037;-86
2022/01/26 05:21:49;;;;;;;57.67;24.20;;;3.10;99.90;;;;;;5035315;28;20096;-86
2022/01/26 05:24:15;;;;;;;54.13;22.63;;;3.10;99.90;;;;;;5008899;28;20033;-85
2022/01/26 05:26:41;;;;;;;55.97;23.15;;;4.10;99.90;;;;;;5004592;28;20034;-85
2022/01/26 05:29:07;;;;;;;57.80;22.83;;;3.10;99.90;;;;;;5025610;28;20522;-85
2022/01/26 05:31:33;;;;;;;57.00;22.67;;;4.70;99.90;;;;;;5005565;28;20553;-85
2022/01/26 05:33:59;;;;;;;58.22;22.55;;;3.70;99.90;;;;;;5001952;28;20094;-86
2022/01/26 05:36:25;;;;;;;62.33;23.88;;;3.10;99.90;;;;;;5017793;28;20045;-86
2022/01/26 05:38:51;;;;;;;61.33;23.58;;;3.00;99.90;;;;;;5023993;28;20053;-85
2022/01/26 05:41:17;;;;;;;60.80;24.38;;;3.00;99.90;;;;;;5020961;28;20401;-84
2022/01/26 05:43:43;;;;;;;54.28;21.88;;;3.70;99.90;;;;;;5038854;28;20036;-85
2022/01/26 05:46:14;;;;;;;60.83;24.05;;;4.50;99.90;;;;;;5012015;28;20120;-85
2022/01/26 05:48:44;;;;;;;57.17;23.90;;;3.00;99.90;;;;;;5010477;28;20098;-85
2022/01/26 05:51:11;;;;;;;57.05;22.80;;;4.90;99.90;;;;;;5017646;28;20575;-85
2022/01/26 05:53:37;;;;;;;55.42;22.48;;;4.30;99.90;;;;;;5025899;28;20051;-85
2022/01/26 05:56:04;;;;;;;54.55;22.67;;;3.10;99.90;;;;;;5030180;28;20053;-86
2022/01/26 05:58:30;;;;;;;55.55;23.33;;;3.10;99.90;;;;;;5009411;28;20045;-85
2022/01/26 06:00:59;;;;;;;60.22;23.33;;;3.10;99.90;;;;;;5025954;28;20095;-85
2022/01/26 06:03:25;;;;;;;59.33;23.65;;;3.00;99.90;;;;;;5025934;28;20096;-85
2022/01/26 06:05:52;;;;;;;58.47;23.33;;;3.70;99.90;;;;;;5008731;28;20037;-85
2022/01/26 06:08:18;;;;;;;56.28;23.10;;;3.20;99.90;;;;;;5039250;28;20045;-86
2022/01/26 06:10:43;;;;;;;58.78;22.83;;;4.40;99.90;;;;;;5013862;28;20040;-86
2022/01/26 06:13:09;;;;;;;53.72;21.50;;;3.00;99.90;;;;;;5024338;28;20566;-86
2022/01/26 06:15:35;;;;;;;57.03;23.40;;;4.70;99.90;;;;;;5024649;28;20090;-86
2022/01/26 06:18:00;;;;;;;55.60;21.83;;;3.80;99.90;;;;;;5036059;28;20501;-86
2022/01/26 06:20:26;;;;;;;54.80;22.20;;;3.80;99.90;;;;;;5034166;28;20036;-86
2022/01/26 06:22:52;;;;;;;51.38;21.75;;;4.20;99.90;;;;;;5021496;28;20037;-85
2022/01/26 06:25:17;;;;;;;53.55;22.08;;;3.50;99.90;;;;;;5038532;28;20033;-86
2022/01/26 06:27:44;;;;;;;53.75;22.88;;;3.00;99.90;;;;;;5025063;28;20064;-85
2022/01/26 06:30:11;;;;;;;54.30;21.52;;;3.00;99.90;;;;;;5002710;28;20142;-84
2022/01/26 06:32:38;;;;;;;51.80;21.67;;;3.00;99.90;;;;;;5003779;28;20044;-85
2022/01/26 06:35:06;;;;;;;52.88;21.90;;;4.30;99.90;;;;;;5012892;28;20138;-85
2022/01/26 06:37:31;;;;;;;59.45;22.00;;;3.00;99.90;;;;;;5006869;28;20498;-85
2022/01/26 06:39:57;;;;;;;51.30;22.10;;;4.60;99.90;;;;;;5040266;28;20094;-85
2022/01/26 06:42:27;;;;;;;53.58;21.92;;;4.40;99.90;;;;;;5027680;28;20033;-85
2022/01/26 06:48:00;;;;;;;54.80;21.70;;;3.00;99.90;;;;;;5033561;28;20056;-85
2022/01/26 06:50:20;;;;;;;49.83;21.60;;;3.90;99.90;;;;;;5023000;28;20099;-85
2022/01/26 06:52:46;;;;;;;55.40;21.88;;;3.00;99.90;;;;;;5014732;28;20040;-85
2022/01/26 06:55:16;;;;;;;55.92;21.95;;;4.20;99.90;;;;;;5025753;28;20038;-85
2022/01/26 06:57:42;;;;;;;54.15;22.50;;;3.00;99.90;;;;;;5014226;28;20042;-86
2022/01/26 07:00:10;;;;;;;55.83;23.55;;;3.00;99.90;;;;;;5021070;28;20051;-86
2022/01/26 07:02:39;;;;;;;55.22;22.63;;;3.00;99.90;;;;;;5023053;28;20044;-87
2022/01/26 07:05:09;;;;;;;50.50;21.98;;;3.00;99.90;;;;;;5043051;28;20037;-87
2022/01/26 07:07:35;;;;;;;52.92;22.70;;;3.00;99.90;;;;;;5032061;28;20620;-86
2022/01/26 07:10:01;;;;;;;52.83;24.30;;;3.00;99.90;;;;;;4991453;28;20037;-87
2022/01/26 07:12:27;;;;;;;55.78;23.10;;;4.00;99.90;;;;;;5009715;28;20456;-89
2022/01/26 07:23:25;;;;;;;53.53;22.23;;;4.60;99.90;;;;;;4987401;28;20533;-87
2022/01/26 07:25:51;;;;;;;55.00;22.30;;;4.60;99.90;;;;;;5004087;28;20120;-87
2022/01/26 07:28:16;;;;;;;55.97;23.92;;;5.00;99.90;;;;;;5018751;28;20064;-86
2022/01/26 07:30:43;;;;;;;57.80;24.08;;;3.90;99.90;;;;;;5004383;28;20049;-86
2022/01/26 07:33:08;;;;;;;52.95;23.15;;;3.00;99.90;;;;;;5003430;28;20034;-89
2022/01/26 07:35:34;;;;;;;58.05;24.05;;;3.00;99.90;;;;;;5019402;28;20099;-86
2022/01/26 07:38:02;;;;;;;58.63;24.17;;;3.00;99.90;;;;;;5016836;28;20208;-86
2022/01/26 07:40:29;;;;;;;55.42;23.70;;;3.00;99.90;;;;;;5007681;28;20033;-88
2022/01/26 07:42:54;;;;;;;57.58;23.73;;;3.00;99.90;;;;;;5016483;28;20458;-85
2022/01/26 07:45:20;;;;;;;58.00;24.52;;;3.10;99.90;;;;;;5037915;28;20029;-89
2022/01/26 07:47:47;;;;;;;60.40;24.58;;;3.80;99.90;;;;;;5010396;28;20482;-87
2022/01/26 07:50:14;;;;;;;62.92;26.52;;;3.10;99.90;;;;;;5023972;28;20056;-86
2022/01/26 07:52:42;;;;;;;55.53;25.30;;;3.10;99.90;;;;;;5007693;28;20675;-88
2022/01/26 07:55:13;;;;;;;62.65;25.38;;;3.30;99.90;;;;;;5037984;28;20120;-87
2022/01/26 07:57:39;;;;;;;61.55;25.73;;;3.10;99.90;;;;;;5015027;28;20064;-87
2022/01/26 08:00:06;;;;;;;65.78;27.70;;;3.10;99.90;;;;;;5022345;28;20037;-89
2022/01/26 08:02:32;;;;;;;65.70;27.23;;;3.10;99.90;;;;;;4988607;28;20045;-88
2022/01/26 08:04:58;;;;;;;62.40;25.48;;;3.10;99.90;;;;;;5001406;28;20045;-88
2022/01/26 08:07:24;;;;;;;60.15;25.52;;;3.10;99.90;;;;;;5007099;28;20029;-90
2022/01/26 08:09:50;;;;;;;61.85;26.42;;;3.10;99.90;;;;;;5022226;28;20040;-87
2022/01/26 08:12:16;;;;;;;63.00;26.77;;;3.10;99.90;;;;;;5006495;28;20045;-88
2022/01/26 08:14:43;;;;;;;62.90;26.88;;;3.10;99.90;;;;;;5027527;28;20545;-89
2022/01/26 08:17:09;;;;;;;68.35;28.55;;;3.20;99.90;;;;;;5023046;28;20029;-88
2022/01/26 08:19:36;;;;;;;68.15;28.40;;;3.20;99.90;;;;;;5040150;28;20059;-87
2022/01/26 08:22:03;;;;;;;67.93;27.38;;;3.20;99.90;;;;;;5005899;28;20037;-88
2022/01/26 08:24:29;;;;;;;66.53;28.50;;;3.20;99.90;;;;;;5032424;28;20033;-89
2022/01/26 08:26:58;;;;;;;67.43;28.45;;;3.20;99.90;;;;;;5009739;28;20465;-87
2022/01/26 08:29:29;;;;;;;71.63;29.40;;;3.30;99.90;;;;;;5023350;28;20499;-88
2022/01/26 08:31:55;;;;;;;73.60;31.25;;;4.70;99.90;;;;;;5022617;28;20037;-86
2022/01/26 08:34:21;;;;;;;71.10;29.60;;;3.20;99.90;;;;;;5004417;28;20477;-87
2022/01/26 08:36:48;;;;;;;74.75;30.52;;;3.20;99.90;;;;;;5021816;28;20041;-87
2022/01/26 08:39:14;;;;;;;66.97;28.80;;;3.90;99.90;;;;;;5025208;28;20112;-87
2022/01/26 08:41:42;;;;;;;75.20;31.65;;;3.30;99.90;;;;;;5021397;28;20104;-87
2022/01/26 08:44:07;;;;;;;71.28;30.27;;;4.30;99.90;;;;;;5027000;28;20052;-88
2022/01/26 08:46:33;;;;;;;74.07;31.35;;;4.20;99.90;;;;;;5012238;28;20037;-88
2022/01/26 08:48:59;;;;;;;71.78;30.00;;;3.30;99.90;;;;;;5027993;28;20069;-87
2022/01/26 08:51:25;;;;;;;77.20;31.35;;;3.30;99.90;;;;;;5022389;28;20060;-87
2022/01/26 08:53:51;;;;;;;76.47;31.77;;;4.90;99.90;;;;;;5008409;28;20052;-87
2022/01/26 08:56:17;;;;;;;73.93;31.83;;;3.30;99.90;;;;;;5032121;28;20076;-89
2022/01/26 08:58:43;;;;;;;74.38;31.23;;;3.40;99.90;;;;;;5030228;28;20045;-90
2022/01/26 09:01:08;;;;;;;69.53;30.85;;;5.30;99.90;;;;;;5001133;28;20037;-87
2022/01/26 09:03:39;;;;;;;72.78;30.98;;;3.50;99.90;;;;;;5028352;28;20045;-86
2022/01/26 09:06:06;;;;;;;77.18;31.60;;;3.40;99.90;;;;;;5008953;28;20034;-88
2022/01/26 09:08:33;;;;;;;73.97;31.35;;;3.40;99.90;;;;;;5024216;28;20038;-88
2022/01/26 09:11:01;;;;;;;69.57;30.98;;;3.40;99.90;;;;;;5036546;28;20048;-87
2022/01/26 09:13:32;;;;;;;75.75;32.15;;;3.50;99.90;;;;;;5022780;28;20060;-87
2022/01/26 09:16:00;;;;;;;71.97;30.75;;;3.40;99.90;;;;;;5026235;28;20073;-88
2022/01/26 09:18:39;;;;;;;75.85;32.20;;;3.50;99.90;;;;;;5032963;28;20041;-91
2022/01/26 09:21:06;;;;;;;73.97;30.85;;;4.00;99.90;;;;;;5012215;28;20049;-88
2022/01/26 09:23:32;;;;;;;72.20;31.48;;;3.50;99.90;;;;;;5030877;28;20080;-88
2022/01/26 09:25:58;;;;;;;74.82;30.92;;;4.50;99.90;;;;;;5005377;28;20107;-89
2022/01/26 09:28:25;;;;;;;73.15;32.58;;;3.60;99.90;;;;;;5012892;28;20049;-87
2022/01/26 09:30:51;;;;;;;82.57;34.03;;;3.50;99.90;;;;;;5007965;28;20040;-88
2022/01/26 09:33:17;;;;;;;77.82;33.35;;;3.60;99.90;;;;;;5025352;28;20034;-88
2022/01/26 09:35:44;;;;;;;75.55;33.08;;;4.70;99.90;;;;;;5014795;28;20052;-86
2022/01/26 09:38:10;;;;;;;78.88;33.58;;;5.10;99.90;;;;;;5041002;28;20131;-88
2022/01/26 09:40:37;;;;;;;77.70;34.45;;;3.60;99.90;;;;;;5024966;28;20045;-87
2022/01/26 09:43:03;;;;;;;75.40;33.97;;;3.60;99.90;;;;;;5004207;28;20041;-88
2022/01/26 09:45:34;;;;;;;75.28;34.15;;;3.70;99.90;;;;;;5013294;28;20103;-87
2022/01/26 09:48:01;;;;;;;75.30;33.10;;;3.70;99.90;;;;;;5003180;28;20033;-86
2022/01/26 09:50:26;;;;;;;78.18;34.35;;;5.40;99.90;;;;;;5005632;28;20034;-87
2022/01/26 09:52:54;;;;;;;73.63;32.90;;;5.30;99.90;;;;;;5025431;28;20040;-88
2022/01/26 09:55:19;;;;;;;78.72;33.85;;;4.70;99.90;;;;;;5009887;28;20128;-89
2022/01/26 09:57:45;;;;;;;74.82;34.17;;;3.80;99.90;;;;;;5023998;28;20124;-90
2022/01/26 10:00:12;;;;;;;78.45;33.78;;;4.00;99.90;;;;;;5023415;28;20291;-87
2022/01/26 10:02:39;;;;;;;80.80;34.83;;;3.80;99.90;;;;;;5027989;28;20055;-88
2022/01/26 10:05:08;;;;;;;75.43;32.97;;;5.50;99.90;;;;;;5005118;28;20103;-90
2022/01/26 10:07:48;;;;;;;73.60;31.45;;;3.80;99.90;;;;;;5037956;28;20037;-88
2022/01/26 10:15:36;;;;;;;75.95;32.78;;;3.90;99.90;;;;;;5027199;28;20351;-91
2022/01/26 10:18:16;;;;;;;76.07;32.58;;;3.90;99.90;;;;;;5005876;28;20045;-87
2022/01/26 10:20:59;;;;;;;72.43;33.05;;;3.90;99.90;;;;;;5043645;28;20445;-86
2022/01/26 10:23:35;;;;;;;70.60;32.28;;;3.90;99.90;;;;;;5026108;28;20045;-86
2022/01/26 10:26:06;;;;;;;75.32;31.90;;;5.20;99.90;;;;;;5039371;28;20461;-86
2022/01/26 10:28:47;;;;;;;70.80;32.13;;;4.50;99.90;;;;;;5028886;28;20067;-88
2022/01/26 10:31:22;;;;;;;68.90;31.63;;;4.00;99.90;;;;;;5045285;28;20126;-88
2022/01/26 10:34:07;;;;;;;69.72;31.92;;;4.00;99.90;;;;;;5054724;28;20039;-87
2022/01/26 10:36:43;;;;;;;61.05;29.65;;;4.00;99.90;;;;;;5044407;28;20509;-87
2022/01/26 10:39:24;;;;;;;71.07;30.85;;;4.10;99.90;;;;;;5040791;28;20037;-89
2022/01/26 10:41:53;;;;;;;66.72;29.50;;;4.10;99.90;;;;;;5036695;28;20049;-87
2022/01/26 10:44:35;;;;;;;60.53;28.17;;;4.10;99.90;;;;;;5021926;28;20068;-87
2022/01/26 10:47:02;;;;;;;60.33;29.33;;;4.20;99.90;;;;;;5042509;28;20314;-87
2022/01/26 10:49:56;;;;;;;60.42;28.85;;;4.20;99.90;;;;;;5025330;28;20285;-88
2022/01/26 10:54:51;;;;;;;61.50;27.90;;;4.30;99.90;;;;;;5038420;28;20148;-88
2022/01/26 10:57:17;;;;;;;60.75;28.10;;;5.60;99.90;;;;;;5025306;28;20045;-88
2022/01/26 10:59:46;;;;;;;60.30;28.20;;;4.30;99.90;;;;;;5037857;28;21301;-89
2022/01/26 11:02:13;;;;;;;63.55;28.52;;;4.30;99.90;;;;;;5025836;28;20514;-89
2022/01/26 11:04:41;;;;;;;60.08;26.80;;;4.30;99.90;;;;;;5024264;28;20033;-86
2022/01/26 11:07:10;;;;;;;61.30;27.92;;;6.00;99.90;;;;;;5016101;28;20037;-87
2022/01/26 11:09:42;;;;;;;61.15;27.90;;;5.30;99.90;;;;;;5026740;28;20037;-86
2022/01/26 11:12:10;;;;;;;59.90;27.48;;;6.10;99.90;;;;;;5037107;28;20047;-85
2022/01/26 11:14:51;;;;;;;56.13;26.58;;;4.40;99.90;;;;;;5027842;28;20040;-86
2022/01/26 11:17:29;;;;;;;62.20;28.30;;;4.40;99.90;;;;;;5029356;28;20037;-86
2022/01/26 11:19:57;;;;;;;55.47;26.67;;;4.40;99.90;;;;;;5031023;28;20036;-86
2022/01/26 11:22:28;;;;;;;58.72;25.75;;;5.60;99.90;;;;;;5024717;28;20513;-86
2022/01/26 11:25:06;;;;;;;59.35;27.25;;;5.80;99.90;;;;;;5024863;28;20490;-86
2022/01/26 11:27:37;;;;;;;56.63;26.73;;;4.40;99.90;;;;;;5029271;28;20095;-85
2022/01/26 11:30:15;;;;;;;61.25;26.58;;;5.40;99.90;;;;;;5003517;28;20061;-86
2022/01/26 11:32:50;;;;;;;54.38;24.40;;;4.40;99.90;;;;;;5041105;28;21413;-86
2022/01/26 11:35:16;;;;;;;61.83;26.15;;;4.50;99.90;;;;;;5039054;28;20116;-86
2022/01/26 11:37:50;;;;;;;58.20;26.48;;;4.50;99.90;;;;;;5037717;28;20062;-87
2022/01/26 11:46:11;;;;;;;58.38;25.67;;;5.20;99.90;;;;;;5022531;28;20246;-85
2022/01/26 11:48:37;;;;;;;61.58;25.70;;;4.60;99.90;;;;;;5041542;28;20079;-85
2022/01/26 11:51:04;;;;;;;56.17;26.02;;;4.60;99.90;;;;;;5016062;28;20056;-85
2022/01/26 11:53:31;;;;;;;62.65;26.23;;;5.30;99.90;;;;;;5028698;28;20445;-86
2022/01/26 11:56:07;;;;;;;60.08;26.58;;;4.60;99.90;;;;;;5009396;28;20072;-86
2022/01/26 11:58:37;;;;;;;58.13;26.05;;;4.60;99.90;;;;;;5022531;28;20034;-86
2022/01/26 12:04:06;;;;;;;57.42;24.75;;;4.60;99.90;;;;;;5045899;28;20398;-89
2022/01/26 12:06:42;;;;;;;54.78;23.92;;;4.60;99.90;;;;;;5049304;28;20095;-88
2022/01/26 12:09:10;;;;;;;58.47;26.02;;;4.60;99.90;;;;;;5013829;28;20549;-87
2022/01/26 12:11:36;;;;;;;57.63;23.88;;;4.50;99.90;;;;;;5026812;28;20049;-88
2022/01/26 12:14:10;;;;;;;62.08;25.70;;;4.60;99.90;;;;;;5030736;28;20093;-89
2022/01/26 12:16:44;;;;;;;64.35;25.98;;;5.20;99.90;;;;;;5032979;28;20390;-90
2022/01/26 12:19:28;;;;;;;59.17;24.60;;;4.60;99.90;;;;;;5025431;28;20520;-89
2022/01/26 12:36:30;;;;;;;70.68;28.25;;;4.60;99.90;;;;;;5025554;28;20048;-88
2022/01/26 12:38:58;;;;;;;57.90;25.38;;;4.60;99.90;;;;;;5016470;28;20040;-91
2022/01/26 12:43:55;;;;;;;54.83;24.95;;;6.40;99.90;;;;;;5035180;28;20041;-89
2022/01/26 12:46:26;;;;;;;59.90;26.10;;;5.10;99.90;;;;;;5038636;28;20158;-89
2022/01/26 12:49:10;;;;;;;61.90;27.50;;;4.60;99.90;;;;;;5044044;28;20514;-90
2022/01/26 12:51:42;;;;;;;55.80;27.27;;;4.60;99.90;;;;;;5026733;28;20095;-90
2022/01/26 12:54:08;;;;;;;60.33;25.67;;;5.80;99.90;;;;;;5024578;28;20112;-89
2022/01/26 12:56:34;;;;;;;57.00;26.15;;;6.00;99.90;;;;;;5024823;28;20048;-89
2022/01/26 12:59:02;;;;;;;61.67;26.52;;;5.80;99.90;;;;;;5019904;28;20045;-88
2022/01/26 13:01:29;;;;;;;59.22;25.95;;;6.30;99.90;;;;;;5021717;28;20042;-89
2022/01/26 13:04:00;;;;;;;63.40;27.13;;;5.00;99.90;;;;;;5018294;28;20461;-88
2022/01/26 13:06:39;;;;;;;58.40;25.83;;;4.60;99.90;;;;;;5037707;28;20053;-89
2022/01/26 13:09:26;;;;;;;59.10;25.40;;;4.70;99.90;;;;;;5035407;28;20757;-88
2022/01/26 13:11:57;;;;;;;52.72;24.15;;;4.70;99.90;;;;;;5022286;28;20041;-89
2022/01/26 13:14:31;;;;;;;56.97;24.95;;;4.70;99.90;;;;;;5025056;28;20040;-90
2022/01/26 13:20:22;;;;;;;59.97;25.13;;;4.80;99.90;;;;;;5038593;28;20346;-87
2022/01/26 13:23:06;;;;;;;66.18;26.38;;;4.80;99.90;;;;;;5037231;28;20120;-90
2022/01/26 13:25:52;;;;;;;54.50;24.50;;;4.80;99.90;;;;;;5023593;28;20398;-89
2022/01/26 13:37:03;;;;;;;56.47;24.40;;;5.40;99.90;;;;;;4971064;28;20046;-89
2022/01/26 13:45:11;;;;;;;58.17;24.98;;;5.00;99.90;;;;;;5017703;28;20049;-88
2022/01/26 13:47:55;;;;;;;57.08;25.13;;;5.60;99.90;;;;;;5044551;28;20098;-90
2022/01/26 13:50:28;;;;;;;50.75;23.55;;;5.00;99.90;;;;;;5025303;28;20033;-90
2022/01/26 13:53:13;;;;;;;58.20;24.63;;;5.00;99.90;;;;;;5005149;28;20076;-91
2022/01/26 14:00:58;;;;;;;54.35;24.85;;;5.10;99.90;;;;;;5026262;28;20064;-89
2022/01/26 14:03:27;;;;;;;52.33;24.77;;;4.60;99.90;;;;;;5023387;28;20037;-89
2022/01/26 14:05:53;;;;;;;55.50;25.50;;;5.10;99.90;;;;;;5012839;28;20048;-88
2022/01/26 14:08:19;;;;;;;49.35;23.58;;;5.20;99.90;;;;;;5006114;28;20026;-88
2022/01/26 14:10:46;;;;;;;47.67;24.38;;;6.50;99.90;;;;;;5014649;28;20029;-88
2022/01/26 14:13:18;;;;;;;49.88;23.92;;;5.10;99.90;;;;;;5014147;28;20115;-89
2022/01/26 14:15:46;;;;;;;49.78;23.70;;;6.20;99.90;;;;;;5018318;28;20048;-89
2022/01/26 14:20:54;;;;;;;48.38;22.85;;;5.90;99.90;;;;;;5032761;28;20381;-90
2022/01/26 14:25:56;;;;;;;50.05;23.17;;;5.80;99.90;;;;;;5038992;28;20615;-88
2022/01/26 14:28:29;;;;;;;45.78;23.13;;;5.70;99.90;;;;;;4996557;28;20128;-87
2022/01/26 14:31:10;;;;;;;48.33;23.00;;;6.70;99.90;;;;;;5000412;28;20190;-88
2022/01/26 14:34:45;;;;;;;49.78;24.25;;;5.10;99.90;;;;;;5011338;28;20034;-89
2022/01/26 15:51:22;;;;;;;54.10;22.17;;;5.20;99.90;;;;;;5040689;28;20036;-89
2022/01/26 16:07:28;;;;;;;49.45;21.42;;;5.20;99.90;;;;;;5022040;28;20074;-88
2022/01/26 16:16:28;;;;;;;46.78;20.65;;;6.40;99.90;;;;;;5010460;28;20490;-87
2022/01/26 16:52:23;;;;;;;48.90;22.13;;;5.30;99.90;;;;;;5006959;28;20415;-89
2022/01/26 18:17:05;;;;;;;42.70;20.73;;;6.00;99.90;;;;;;5038838;28;20120;-87
2022/01/26 18:39:36;;;;;;;42.00;19.52;;;5.50;99.90;;;;;;5037522;28;20468;-89
2022/01/26 18:50:06;;;;;;;38.05;18.95;;;5.60;99.90;;;;;;5021626;28;20506;-87
2022/01/26 18:52:32;;;;;;;38.63;19.38;;;5.50;99.90;;;;;;5005788;28;20072;-87
2022/01/26 18:54:58;;;;;;;41.40;19.17;;;6.70;99.90;;;;;;5019084;28;20222;-87
2022/01/26 18:57:24;;;;;;;37.20;18.25;;;5.50;99.90;;;;;;5010617;28;20540;-87
2022/01/26 18:59:50;;;;;;;35.78;18.35;;;5.50;99.90;;;;;;4999588;28;20079;-88
2022/01/26 19:02:16;;;;;;;43.22;18.75;;;5.50;99.90;;;;;;5033428;28;20053;-88
2022/01/26 19:04:45;;;;;;;33.65;16.75;;;5.90;99.90;;;;;;4664709;28;9999780;-87
2022/01/26 19:07:11;;;;;;;31.52;15.82;;;5.60;99.90;;;;;;5021572;28;20513;-88
2022/01/26 19:09:41;;;;;;;35.83;16.95;;;5.60;99.90;;;;;;5031695;28;20052;-88
2022/01/26 19:12:11;;;;;;;32.75;15.70;;;5.90;99.90;;;;;;5022953;28;20044;-88
2022/01/26 19:14:40;;;;;;;31.92;16.27;;;5.60;99.90;;;;;;5014778;28;20128;-88
2022/01/26 19:27:01;;;;;;;29.17;15.75;;;5.70;99.90;;;;;;5014630;28;20033;-87
2022/01/26 19:51:00;;;;;;;28.85;15.00;;;6.00;99.90;;;;;;5032466;28;20458;-86
2022/01/26 19:53:26;;;;;;;29.98;14.13;;;6.00;99.90;;;;;;5010416;28;20037;-87
2022/01/26 19:55:52;;;;;;;33.53;15.48;;;7.30;99.90;;;;;;5033041;28;20041;-87
2022/01/26 19:58:18;;;;;;;33.70;15.32;;;7.10;99.90;;;;;;5008999;28;20041;-88